sensor_id;sensor_type;location;lat;lon;timestamp;pressure;altitude;pressure_sealevel;temperature;humidity
40612;BME280;26317;44.894;20.286;2023-08-08T00:01:22;100922.09;;;17.49;83.13
40612;BME280;26317;44.894;20.286;2023-08-08T00:04:06;100922.88;;;17.49;83.32
40612;BME280;26317;44.894;20.286;2023-08-08T00:06:57;100914.25;;;17.47;83.77
40612;BME280;26317;44.894;20.286;2023-08-08T00:09:33;100926.72;;;17.48;84.00
40612;BME280;26317;44.894;20.286;2023-08-08T00:12:09;100925.91;;;17.48;84.07
40612;BME280;26317;44.894;20.286;2023-08-08T00:14:52;100902.63;;;17.33;84.24
40612;BME280;26317;44.894;20.286;2023-08-08T00:17:31;100922.69;;;17.46;84.15
40612;BME280;26317;44.894;20.286;2023-08-08T00:20:13;100926.72;;;17.48;84.58
40612;BME280;26317;44.894;20.286;2023-08-08T00:22:55;100925.59;;;17.49;84.86
40612;BME280;26317;44.894;20.286;2023-08-08T00:25:29;100923.38;;;17.52;85.44
40612;BME280;26317;44.894;20.286;2023-08-08T00:28:11;100927.19;;;17.51;85.35
40612;BME280;26317;44.894;20.286;2023-08-08T00:30:47;100928.00;;;17.51;86.38
40612;BME280;26317;44.894;20.286;2023-08-08T00:33:20;100926.38;;;17.50;86.97
40612;BME280;26317;44.894;20.286;2023-08-08T00:36:02;100908.94;;;17.42;87.11
40612;BME280;26317;44.894;20.286;2023-08-08T00:38:40;100915.34;;;17.46;87.61
40612;BME280;26317;44.894;20.286;2023-08-08T00:41:18;100919.97;;;17.46;87.46
40612;BME280;26317;44.894;20.286;2023-08-08T00:44:02;100910.56;;;17.43;87.45
40612;BME280;26317;44.894;20.286;2023-08-08T00:46:40;100924.00;;;17.48;87.91
40612;BME280;26317;44.894;20.286;2023-08-08T00:49:25;100916.97;;;17.47;87.85
40612;BME280;26317;44.894;20.286;2023-08-08T00:52:06;100924.47;;;17.51;87.48
40612;BME280;26317;44.894;20.286;2023-08-08T00:54:58;100920.59;;;17.43;88.41
40612;BME280;26317;44.894;20.286;2023-08-08T00:57:36;100900.56;;;17.30;88.45
40612;BME280;26317;44.894;20.286;2023-08-08T01:00:18;100917.78;;;17.48;89.24
40612;BME280;26317;44.894;20.286;2023-08-08T01:02:54;100925.59;;;17.49;89.02
40612;BME280;26317;44.894;20.286;2023-08-08T01:05:35;100924.28;;;17.47;88.55
40612;BME280;26317;44.894;20.286;2023-08-08T01:08:15;100926.38;;;17.50;88.61
40612;BME280;26317;44.894;20.286;2023-08-08T01:11:06;100925.78;;;17.53;87.96
40612;BME280;26317;44.894;20.286;2023-08-08T01:13:46;100927.38;;;17.54;88.19
40612;BME280;26317;44.894;20.286;2023-08-08T01:16:24;100923.56;;;17.55;88.03
40612;BME280;26317;44.894;20.286;2023-08-08T01:19:07;100928.28;;;17.49;88.14
40612;BME280;26317;44.894;20.286;2023-08-08T01:22:01;100926.63;;;17.40;88.51
40612;BME280;26317;44.894;20.286;2023-08-08T01:24:51;100925.84;;;17.39;88.82
40612;BME280;26317;44.894;20.286;2023-08-08T01:27:31;100930.44;;;17.39;88.16
40612;BME280;26317;44.894;20.286;2023-08-08T01:30:10;100922.31;;;17.39;87.30
40612;BME280;26317;44.894;20.286;2023-08-08T01:32:42;100934.06;;;17.34;85.22
40612;BME280;26317;44.894;20.286;2023-08-08T01:35:15;100929.88;;;17.28;85.60
40612;BME280;26317;44.894;20.286;2023-08-08T01:37:55;100929.38;;;17.26;85.97
40612;BME280;26317;44.894;20.286;2023-08-08T01:40:48;100927.59;;;17.22;85.29
40612;BME280;26317;44.894;20.286;2023-08-08T01:43:26;100932.72;;;17.23;85.55
40612;BME280;26317;44.894;20.286;2023-08-08T01:46:21;100925.31;;;17.15;85.05
40612;BME280;26317;44.894;20.286;2023-08-08T01:49:03;100937.34;;;17.23;85.08
40612;BME280;26317;44.894;20.286;2023-08-08T01:52:03;100937.16;;;17.19;84.64
40612;BME280;26317;44.894;20.286;2023-08-08T01:54:45;100939.34;;;17.17;84.58
40612;BME280;26317;44.894;20.286;2023-08-08T01:57:29;100937.53;;;17.13;85.15
40612;BME280;26317;44.894;20.286;2023-08-08T02:00:07;100933.53;;;17.10;85.00
40612;BME280;26317;44.894;20.286;2023-08-08T02:02:47;100929.50;;;17.08;85.15
40612;BME280;26317;44.894;20.286;2023-08-08T02:05:52;100900.56;;;16.81;84.97
40612;BME280;26317;44.894;20.286;2023-08-08T02:08:25;100938.41;;;16.86;86.01
40612;BME280;26317;44.894;20.286;2023-08-08T02:11:16;100935.59;;;16.77;86.70
40612;BME280;26317;44.894;20.286;2023-08-08T02:13:53;100937.97;;;16.79;86.65
40612;BME280;26317;44.894;20.286;2023-08-08T02:16:27;100938.50;;;16.81;86.98
40612;BME280;26317;44.894;20.286;2023-08-08T02:19:04;100938.59;;;16.76;86.84
40612;BME280;26317;44.894;20.286;2023-08-08T02:21:46;100935.06;;;16.75;87.24
40612;BME280;26317;44.894;20.286;2023-08-08T02:24:29;100932.19;;;16.72;86.22
40612;BME280;26317;44.894;20.286;2023-08-08T02:27:08;100929.75;;;16.70;86.95
40612;BME280;26317;44.894;20.286;2023-08-08T02:29:48;100928.56;;;16.63;86.46
40612;BME280;26317;44.894;20.286;2023-08-08T02:32:26;100930.16;;;16.64;86.82
40612;BME280;26317;44.894;20.286;2023-08-08T02:35:00;100939.81;;;16.70;86.98
40612;BME280;26317;44.894;20.286;2023-08-08T02:37:47;100934.78;;;16.63;87.43
40612;BME280;26317;44.894;20.286;2023-08-08T02:40:22;100937.50;;;16.63;87.29
40612;BME280;26317;44.894;20.286;2023-08-08T02:43:05;100943.72;;;16.64;87.38
40612;BME280;26317;44.894;20.286;2023-08-08T02:45:48;100950.41;;;16.66;87.63
40612;BME280;26317;44.894;20.286;2023-08-08T02:48:47;100957.06;;;16.60;88.11
40612;BME280;26317;44.894;20.286;2023-08-08T02:51:35;100961.66;;;16.60;87.30
40612;BME280;26317;44.894;20.286;2023-08-08T02:54:09;100942.38;;;16.47;86.81
40612;BME280;26317;44.894;20.286;2023-08-08T02:56:48;100961.72;;;16.54;87.91
40612;BME280;26317;44.894;20.286;2023-08-08T02:59:35;100952.00;;;16.40;87.09
40612;BME280;26317;44.894;20.286;2023-08-08T03:02:17;100947.56;;;16.30;88.23
40612;BME280;26317;44.894;20.286;2023-08-08T03:04:52;100948.97;;;16.28;89.58
40612;BME280;26317;44.894;20.286;2023-08-08T03:07:33;100947.56;;;16.30;89.41
40612;BME280;26317;44.894;20.286;2023-08-08T03:10:16;100951.56;;;16.19;89.77
40612;BME280;26317;44.894;20.286;2023-08-08T03:12:49;100956.09;;;16.24;90.46
40612;BME280;26317;44.894;20.286;2023-08-08T03:18:26;100958.56;;;16.20;90.60
40612;BME280;26317;44.894;20.286;2023-08-08T03:21:02;100960.38;;;16.25;91.45
40612;BME280;26317;44.894;20.286;2023-08-08T03:23:41;100963.19;;;16.33;92.05
40612;BME280;26317;44.894;20.286;2023-08-08T03:26:14;100962.63;;;16.36;91.64
40612;BME280;26317;44.894;20.286;2023-08-08T03:28:56;100967.13;;;16.41;91.66
40612;BME280;26317;44.894;20.286;2023-08-08T03:31:43;100966.03;;;16.42;90.69
40612;BME280;26317;44.894;20.286;2023-08-08T03:34:30;100969.81;;;16.41;90.42
40612;BME280;26317;44.894;20.286;2023-08-08T03:37:07;100978.75;;;16.41;90.78
40612;BME280;26317;44.894;20.286;2023-08-08T03:39:51;100973.25;;;16.46;90.61
40612;BME280;26317;44.894;20.286;2023-08-08T03:42:28;100975.34;;;16.49;90.27
40612;BME280;26317;44.894;20.286;2023-08-08T03:45:05;100970.94;;;16.53;90.02
40612;BME280;26317;44.894;20.286;2023-08-08T03:47:42;100977.91;;;16.60;88.37
40612;BME280;26317;44.894;20.286;2023-08-08T03:50:32;100977.09;;;16.59;86.28
40612;BME280;26317;44.894;20.286;2023-08-08T03:53:11;100981.13;;;16.62;86.92
40612;BME280;26317;44.894;20.286;2023-08-08T03:55:47;100983.34;;;16.60;86.30
40612;BME280;26317;44.894;20.286;2023-08-08T03:58:33;100986.53;;;16.62;87.29
40612;BME280;26317;44.894;20.286;2023-08-08T04:01:10;100984.53;;;16.67;85.78
40612;BME280;26317;44.894;20.286;2023-08-08T04:03:49;100990.16;;;16.71;85.94
40612;BME280;26317;44.894;20.286;2023-08-08T04:06:33;100983.63;;;16.72;84.43
40612;BME280;26317;44.894;20.286;2023-08-08T04:09:14;100985.53;;;16.71;84.29
40612;BME280;26317;44.894;20.286;2023-08-08T04:11:57;100985.53;;;16.71;84.10
40612;BME280;26317;44.894;20.286;2023-08-08T04:14:35;100981.44;;;16.74;83.83
40612;BME280;26317;44.894;20.286;2023-08-08T04:17:08;100976.69;;;16.66;83.42
40612;BME280;26317;44.894;20.286;2023-08-08T04:22:34;100993.78;;;16.80;84.01
40612;BME280;26317;44.894;20.286;2023-08-08T04:25:09;100997.91;;;16.77;83.15
40612;BME280;26317;44.894;20.286;2023-08-08T04:27:43;100994.88;;;16.79;82.75
40612;BME280;26317;44.894;20.286;2023-08-08T04:30:24;101002.72;;;16.80;81.78
40612;BME280;26317;44.894;20.286;2023-08-08T04:32:59;101013.25;;;16.82;80.94
40612;BME280;26317;44.894;20.286;2023-08-08T04:35:29;101012.38;;;16.86;79.38
40612;BME280;26317;44.894;20.286;2023-08-08T04:38:14;101018.66;;;16.95;78.56
40612;BME280;26317;44.894;20.286;2023-08-08T04:40:48;101014.03;;;16.96;78.21
40612;BME280;26317;44.894;20.286;2023-08-08T04:43:20;101022.28;;;16.91;76.08
40612;BME280;26317;44.894;20.286;2023-08-08T04:45:51;101023.88;;;16.92;77.78
40612;BME280;26317;44.894;20.286;2023-08-08T04:48:26;101031.91;;;16.97;76.23
40612;BME280;26317;44.894;20.286;2023-08-08T04:51:09;101038.94;;;17.12;76.60
40612;BME280;26317;44.894;20.286;2023-08-08T04:53:49;101035.44;;;17.11;76.60
40612;BME280;26317;44.894;20.286;2023-08-08T04:56:23;101042.34;;;17.17;74.76
40612;BME280;26317;44.894;20.286;2023-08-08T04:58:57;101043.34;;;17.08;75.96
40612;BME280;26317;44.894;20.286;2023-08-08T05:01:36;101050.38;;;17.22;75.40
40612;BME280;26317;44.894;20.286;2023-08-08T05:04:14;101056.72;;;17.31;75.48
40612;BME280;26317;44.894;20.286;2023-08-08T05:06:46;101061.94;;;17.28;73.89
40612;BME280;26317;44.894;20.286;2023-08-08T05:09:21;101065.44;;;17.28;74.78
40612;BME280;26317;44.894;20.286;2023-08-08T05:12:11;101057.22;;;17.20;75.50
40612;BME280;26317;44.894;20.286;2023-08-08T05:14:59;101058.22;;;17.10;75.14
40612;BME280;26317;44.894;20.286;2023-08-08T05:17:49;101075.97;;;17.16;73.68
40612;BME280;26317;44.894;20.286;2023-08-08T05:20:25;101071.47;;;17.12;73.36
40612;BME280;26317;44.894;20.286;2023-08-08T05:23:01;101071.47;;;17.12;72.91
40612;BME280;26317;44.894;20.286;2023-08-08T05:25:48;101079.50;;;17.17;73.80
40612;BME280;26317;44.894;20.286;2023-08-08T05:28:30;101078.13;;;17.19;73.75
40612;BME280;26317;44.894;20.286;2023-08-08T05:31:16;101089.53;;;17.30;73.82
40612;BME280;26317;44.894;20.286;2023-08-08T05:33:48;101095.38;;;17.23;72.93
40612;BME280;26317;44.894;20.286;2023-08-08T05:36:26;101110.84;;;17.23;71.79
40612;BME280;26317;44.894;20.286;2023-08-08T05:38:58;101103.72;;;17.27;72.75
40612;BME280;26317;44.894;20.286;2023-08-08T05:41:33;101106.09;;;17.28;72.22
40612;BME280;26317;44.894;20.286;2023-08-08T05:44:11;101084.03;;;17.21;74.20
40612;BME280;26317;44.894;20.286;2023-08-08T05:46:48;101107.44;;;17.44;73.36
40612;BME280;26317;44.894;20.286;2023-08-08T05:49:28;101112.25;;;17.47;72.07
40612;BME280;26317;44.894;20.286;2023-08-08T05:52:15;101109.44;;;17.53;74.61
40612;BME280;26317;44.894;20.286;2023-08-08T05:54:53;101109.56;;;17.61;73.32
40612;BME280;26317;44.894;20.286;2023-08-08T05:57:32;101104.00;;;17.53;71.14
40612;BME280;26317;44.894;20.286;2023-08-08T06:00:19;101111.47;;;17.61;71.64
40612;BME280;26317;44.894;20.286;2023-08-08T06:03:00;101121.69;;;17.64;71.63
40612;BME280;26317;44.894;20.286;2023-08-08T06:05:39;101119.19;;;17.67;72.90
40612;BME280;26317;44.894;20.286;2023-08-08T06:08:13;101120.50;;;17.70;72.94
40612;BME280;26317;44.894;20.286;2023-08-08T06:10:55;101120.34;;;17.88;82.95
40612;BME280;26317;44.894;20.286;2023-08-08T06:13:41;101125.97;;;17.92;70.99
40612;BME280;26317;44.894;20.286;2023-08-08T06:16:17;101122.03;;;17.98;71.79
40612;BME280;26317;44.894;20.286;2023-08-08T06:18:56;101131.72;;;17.90;68.40
40612;BME280;26317;44.894;20.286;2023-08-08T06:21:30;101119.81;;;18.00;75.12
40612;BME280;26317;44.894;20.286;2023-08-08T06:24:07;101122.31;;;18.10;68.70
40612;BME280;26317;44.894;20.286;2023-08-08T06:26:43;101128.19;;;17.90;68.23
40612;BME280;26317;44.894;20.286;2023-08-08T06:29:25;101121.44;;;18.01;70.21
40612;BME280;26317;44.894;20.286;2023-08-08T06:32:04;101124.28;;;18.18;69.45
40612;BME280;26317;44.894;20.286;2023-08-08T06:34:40;101127.25;;;18.30;69.66
40612;BME280;26317;44.894;20.286;2023-08-08T06:37:23;101135.59;;;18.34;68.59
40612;BME280;26317;44.894;20.286;2023-08-08T06:40:14;101136.97;;;18.45;65.44
40612;BME280;26317;44.894;20.286;2023-08-08T06:42:54;101143.06;;;18.51;66.55
40612;BME280;26317;44.894;20.286;2023-08-08T06:45:35;101141.75;;;18.62;67.18
40612;BME280;26317;44.894;20.286;2023-08-08T06:48:06;101150.63;;;18.54;66.23
40612;BME280;26317;44.894;20.286;2023-08-08T06:50:41;101141.78;;;18.48;64.90
40612;BME280;26317;44.894;20.286;2023-08-08T06:53:17;101146.59;;;18.51;65.42
40612;BME280;26317;44.894;20.286;2023-08-08T06:55:58;101139.53;;;18.64;67.87
40612;BME280;26317;44.894;20.286;2023-08-08T06:58:39;101144.19;;;18.50;65.60
40612;BME280;26317;44.894;20.286;2023-08-08T07:01:24;101144.84;;;18.69;64.83
40612;BME280;26317;44.894;20.286;2023-08-08T07:04:09;101141.84;;;18.79;66.71
40612;BME280;26317;44.894;20.286;2023-08-08T07:06:53;101137.22;;;18.79;66.30
40612;BME280;26317;44.894;20.286;2023-08-08T07:09:27;101150.88;;;18.88;65.95
40612;BME280;26317;44.894;20.286;2023-08-08T07:12:13;101139.75;;;18.76;63.50
40612;BME280;26317;44.894;20.286;2023-08-08T07:14:48;101146.44;;;18.70;64.73
40612;BME280;26317;44.894;20.286;2023-08-08T07:17:43;101144.91;;;18.55;64.31
40612;BME280;26317;44.894;20.286;2023-08-08T07:20:21;101146.63;;;18.73;65.36
40612;BME280;26317;44.894;20.286;2023-08-08T07:23:04;101148.16;;;18.88;65.92
40612;BME280;26317;44.894;20.286;2023-08-08T07:25:41;101150.44;;;18.95;63.35
40612;BME280;26317;44.894;20.286;2023-08-08T07:28:18;101147.78;;;19.03;63.55
40612;BME280;26317;44.894;20.286;2023-08-08T07:31:02;101147.13;;;19.06;62.48
40612;BME280;26317;44.894;20.286;2023-08-08T07:33:47;101150.34;;;19.08;64.88
40612;BME280;26317;44.894;20.286;2023-08-08T07:36:22;101141.69;;;19.06;63.16
40612;BME280;26317;44.894;20.286;2023-08-08T07:39:04;101143.66;;;19.14;65.00
40612;BME280;26317;44.894;20.286;2023-08-08T07:41:45;101155.69;;;19.22;64.99
40612;BME280;26317;44.894;20.286;2023-08-08T07:44:38;101157.19;;;19.37;63.63
40612;BME280;26317;44.894;20.286;2023-08-08T07:47:09;101164.44;;;19.41;63.25
40612;BME280;26317;44.894;20.286;2023-08-08T07:50:21;101162.22;;;19.43;64.45
40612;BME280;26317;44.894;20.286;2023-08-08T07:52:59;101155.47;;;19.41;62.86
40612;BME280;26317;44.894;20.286;2023-08-08T07:55:31;101159.66;;;19.47;62.08
40612;BME280;26317;44.894;20.286;2023-08-08T07:58:13;101147.03;;;19.51;61.33
40612;BME280;26317;44.894;20.286;2023-08-08T08:00:54;101154.88;;;19.52;61.30
40612;BME280;26317;44.894;20.286;2023-08-08T08:03:38;101160.16;;;19.49;61.47
40612;BME280;26317;44.894;20.286;2023-08-08T08:06:16;101141.63;;;19.68;61.39
40612;BME280;26317;44.894;20.286;2023-08-08T08:08:52;101147.44;;;19.84;63.64
40612;BME280;26317;44.894;20.286;2023-08-08T08:11:24;101154.81;;;19.92;61.53
40612;BME280;26317;44.894;20.286;2023-08-08T08:14:05;101143.59;;;19.93;61.45
40612;BME280;26317;44.894;20.286;2023-08-08T08:16:45;101150.50;;;19.91;62.59
40612;BME280;26317;44.894;20.286;2023-08-08T08:19:20;101146.47;;;19.88;61.23
40612;BME280;26317;44.894;20.286;2023-08-08T08:22:07;101147.38;;;19.66;60.97
40612;BME280;26317;44.894;20.286;2023-08-08T08:24:44;101142.94;;;19.79;60.41
40612;BME280;26317;44.894;20.286;2023-08-08T08:27:20;101147.78;;;19.91;59.73
40612;BME280;26317;44.894;20.286;2023-08-08T08:29:58;101140.41;;;19.91;59.83
40612;BME280;26317;44.894;20.286;2023-08-08T08:32:35;101134.00;;;20.13;61.16
40612;BME280;26317;44.894;20.286;2023-08-08T08:35:11;101140.91;;;20.19;59.29
40612;BME280;26317;44.894;20.286;2023-08-08T08:38:03;101136.13;;;20.25;59.55
40612;BME280;26317;44.894;20.286;2023-08-08T08:40:41;101134.34;;;20.20;59.23
40612;BME280;26317;44.894;20.286;2023-08-08T08:43:18;101132.41;;;20.03;59.12
40612;BME280;26317;44.894;20.286;2023-08-08T08:46:14;101121.84;;;20.19;59.75
40612;BME280;26317;44.894;20.286;2023-08-08T08:48:57;101124.06;;;20.26;60.46
40612;BME280;26317;44.894;20.286;2023-08-08T08:51:34;101134.19;;;20.42;60.57
40612;BME280;26317;44.894;20.286;2023-08-08T08:54:15;101127.94;;;20.42;58.45
40612;BME280;26317;44.894;20.286;2023-08-08T08:56:57;101121.50;;;20.55;58.32
40612;BME280;26317;44.894;20.286;2023-08-08T08:59:31;101122.00;;;20.57;56.19
40612;BME280;26317;44.894;20.286;2023-08-08T09:02:13;101121.84;;;20.71;60.20
40612;BME280;26317;44.894;20.286;2023-08-08T09:04:49;101126.78;;;20.69;58.28
40612;BME280;26317;44.894;20.286;2023-08-08T09:07:35;101133.69;;;20.66;59.42
40612;BME280;26317;44.894;20.286;2023-08-08T09:10:25;101125.53;;;20.66;55.35
40612;BME280;26317;44.894;20.286;2023-08-08T09:13:00;101130.44;;;20.81;57.04
40612;BME280;26317;44.894;20.286;2023-08-08T09:15:36;101119.22;;;20.83;54.95
40612;BME280;26317;44.894;20.286;2023-08-08T09:18:14;101132.53;;;20.84;55.66
40612;BME280;26317;44.894;20.286;2023-08-08T09:20:47;101119.22;;;20.91;54.43
40612;BME280;26317;44.894;20.286;2023-08-08T09:23:21;101115.66;;;20.99;55.65
40612;BME280;26317;44.894;20.286;2023-08-08T09:26:03;101123.91;;;21.29;53.45
40612;BME280;26317;44.894;20.286;2023-08-08T09:28:44;101117.97;;;21.27;53.79
40612;BME280;26317;44.894;20.286;2023-08-08T09:31:27;101118.13;;;21.22;52.07
40612;BME280;26317;44.894;20.286;2023-08-08T09:34:04;101113.59;;;21.34;54.13
40612;BME280;26317;44.894;20.286;2023-08-08T09:36:40;101116.19;;;21.31;54.15
40612;BME280;26317;44.894;20.286;2023-08-08T09:39:14;101082.34;;;21.23;52.24
40612;BME280;26317;44.894;20.286;2023-08-08T09:42:01;101109.97;;;21.51;53.81
40612;BME280;26317;44.894;20.286;2023-08-08T09:44:38;101114.03;;;21.74;52.68
40612;BME280;26317;44.894;20.286;2023-08-08T09:47:14;101113.53;;;21.72;53.80
40612;BME280;26317;44.894;20.286;2023-08-08T09:49:50;101103.13;;;21.95;52.38
40612;BME280;26317;44.894;20.286;2023-08-08T09:52:31;101106.19;;;22.14;51.91
40612;BME280;26317;44.894;20.286;2023-08-08T09:55:11;101103.56;;;22.18;51.00
40612;BME280;26317;44.894;20.286;2023-08-08T09:57:48;101112.06;;;22.25;51.23
40612;BME280;26317;44.894;20.286;2023-08-08T10:00:26;101110.44;;;22.24;51.79
40612;BME280;26317;44.894;20.286;2023-08-08T10:03:05;101105.38;;;22.14;53.66
40612;BME280;26317;44.894;20.286;2023-08-08T10:05:57;101091.78;;;22.05;51.56
40612;BME280;26317;44.894;20.286;2023-08-08T10:08:32;101098.31;;;22.13;53.18
40612;BME280;26317;44.894;20.286;2023-08-08T10:11:07;101103.88;;;22.25;49.98
40612;BME280;26317;44.894;20.286;2023-08-08T10:13:53;101083.81;;;22.21;49.22
40612;BME280;26317;44.894;20.286;2023-08-08T10:16:31;101106.16;;;22.35;49.81
40612;BME280;26317;44.894;20.286;2023-08-08T10:19:11;101110.94;;;22.38;49.04
40612;BME280;26317;44.894;20.286;2023-08-08T10:21:46;101103.47;;;22.47;47.66
40612;BME280;26317;44.894;20.286;2023-08-08T10:24:24;101094.56;;;22.38;48.16
40612;BME280;26317;44.894;20.286;2023-08-08T10:26:58;101101.75;;;22.42;47.60
40612;BME280;26317;44.894;20.286;2023-08-08T10:29:41;101094.34;;;22.43;49.45
40612;BME280;26317;44.894;20.286;2023-08-08T10:32:25;101092.53;;;22.47;50.91
40612;BME280;26317;44.894;20.286;2023-08-08T10:35:05;101095.75;;;22.49;48.51
40612;BME280;26317;44.894;20.286;2023-08-08T10:38:00;101095.31;;;22.59;49.38
40612;BME280;26317;44.894;20.286;2023-08-08T10:40:42;101092.63;;;22.71;49.67
40612;BME280;26317;44.894;20.286;2023-08-08T10:43:25;101103.63;;;22.63;46.62
40612;BME280;26317;44.894;20.286;2023-08-08T10:46:23;101099.06;;;22.55;47.41
40612;BME280;26317;44.894;20.286;2023-08-08T10:49:05;101093.84;;;22.62;47.86
40612;BME280;26317;44.894;20.286;2023-08-08T10:51:39;101087.69;;;22.65;48.23
40612;BME280;26317;44.894;20.286;2023-08-08T10:54:24;101089.25;;;22.86;49.83
40612;BME280;26317;44.894;20.286;2023-08-08T10:57:00;101084.25;;;23.01;49.99
40612;BME280;26317;44.894;20.286;2023-08-08T10:59:47;101085.25;;;22.96;48.01
40612;BME280;26317;44.894;20.286;2023-08-08T11:02:35;101091.78;;;22.91;47.96
40612;BME280;26317;44.894;20.286;2023-08-08T11:05:12;101096.53;;;22.70;48.60
40612;BME280;26317;44.894;20.286;2023-08-08T11:07:52;101091.88;;;22.50;47.07
40612;BME280;26317;44.894;20.286;2023-08-08T11:10:25;101087.78;;;22.56;47.71
40612;BME280;26317;44.894;20.286;2023-08-08T11:13:03;101082.16;;;22.73;48.57
40612;BME280;26317;44.894;20.286;2023-08-08T11:15:42;101086.44;;;23.07;47.64
40612;BME280;26317;44.894;20.286;2023-08-08T11:18:18;101072.97;;;23.38;49.13
40612;BME280;26317;44.894;20.286;2023-08-08T11:20:56;101081.44;;;23.58;45.54
40612;BME280;26317;44.894;20.286;2023-08-08T11:23:46;101081.66;;;23.16;46.56
40612;BME280;26317;44.894;20.286;2023-08-08T11:26:27;101079.69;;;22.92;49.75
40612;BME280;26317;44.894;20.286;2023-08-08T11:29:06;101079.25;;;23.15;47.27
40612;BME280;26317;44.894;20.286;2023-08-08T11:31:45;101054.16;;;23.25;46.08
40612;BME280;26317;44.894;20.286;2023-08-08T11:34:41;101063.19;;;23.50;47.53
40612;BME280;26317;44.894;20.286;2023-08-08T11:37:26;101070.81;;;23.44;45.25
40612;BME280;26317;44.894;20.286;2023-08-08T11:40:01;101066.34;;;23.64;47.76
40612;BME280;26317;44.894;20.286;2023-08-08T11:42:32;101057.31;;;23.63;45.09
40612;BME280;26317;44.894;20.286;2023-08-08T11:45:13;101062.34;;;23.61;43.04
40612;BME280;26317;44.894;20.286;2023-08-08T11:48:02;101057.06;;;23.80;46.31
40612;BME280;26317;44.894;20.286;2023-08-08T11:50:52;101052.00;;;23.95;44.74
40612;BME280;26317;44.894;20.286;2023-08-08T11:53:29;101038.69;;;24.21;45.14
40612;BME280;26317;44.894;20.286;2023-08-08T11:56:08;101037.34;;;24.31;42.26
40612;BME280;26317;44.894;20.286;2023-08-08T11:58:44;101042.50;;;24.32;42.44
40612;BME280;26317;44.894;20.286;2023-08-08T12:01:25;101043.81;;;24.38;42.72
40612;BME280;26317;44.894;20.286;2023-08-08T12:04:08;101036.22;;;24.47;41.66
40612;BME280;26317;44.894;20.286;2023-08-08T12:07:02;101038.53;;;24.45;41.02
40612;BME280;26317;44.894;20.286;2023-08-08T12:09:39;101032.53;;;24.55;41.29
40612;BME280;26317;44.894;20.286;2023-08-08T12:12:10;101033.22;;;24.52;43.29
40612;BME280;26317;44.894;20.286;2023-08-08T12:14:53;101034.66;;;24.78;41.28
40612;BME280;26317;44.894;20.286;2023-08-08T12:17:51;101037.41;;;24.78;39.64
40612;BME280;26317;44.894;20.286;2023-08-08T12:20:29;101033.25;;;24.84;42.55
40612;BME280;26317;44.894;20.286;2023-08-08T12:23:09;101006.81;;;24.76;37.43
40612;BME280;26317;44.894;20.286;2023-08-08T12:25:46;101011.47;;;25.06;40.30
40612;BME280;26317;44.894;20.286;2023-08-08T12:28:24;101008.41;;;25.27;40.25
40612;BME280;26317;44.894;20.286;2023-08-08T12:30:57;101003.06;;;25.15;39.00
40612;BME280;26317;44.894;20.286;2023-08-08T12:33:31;101007.13;;;25.05;40.12
40612;BME280;26317;44.894;20.286;2023-08-08T12:36:09;101013.34;;;24.71;40.09
40612;BME280;26317;44.894;20.286;2023-08-08T12:38:56;101018.47;;;24.57;39.73
40612;BME280;26317;44.894;20.286;2023-08-08T12:41:30;100999.97;;;24.69;40.43
40612;BME280;26317;44.894;20.286;2023-08-08T12:44:10;101002.63;;;24.82;39.06
40612;BME280;26317;44.894;20.286;2023-08-08T12:46:54;101005.78;;;25.15;41.29
40612;BME280;26317;44.894;20.286;2023-08-08T12:49:35;100998.38;;;25.35;39.83
40612;BME280;26317;44.894;20.286;2023-08-08T12:52:15;101003.59;;;25.40;37.64
40612;BME280;26317;44.894;20.286;2023-08-08T12:54:56;100999.69;;;25.56;37.84
40612;BME280;26317;44.894;20.286;2023-08-08T12:57:32;100995.06;;;25.60;37.36
40612;BME280;26317;44.894;20.286;2023-08-08T13:00:21;100997.88;;;25.64;36.58
40612;BME280;26317;44.894;20.286;2023-08-08T13:03:22;100989.78;;;25.36;36.26
40612;BME280;26317;44.894;20.286;2023-08-08T13:06:00;101000.50;;;25.06;36.73
40612;BME280;26317;44.894;20.286;2023-08-08T13:08:37;100989.16;;;24.77;39.79
40612;BME280;26317;44.894;20.286;2023-08-08T13:11:19;100986.34;;;24.89;37.40
40612;BME280;26317;44.894;20.286;2023-08-08T13:13:51;100982.22;;;25.14;38.96
40612;BME280;26317;44.894;20.286;2023-08-08T13:16:27;100975.06;;;25.44;37.90
40612;BME280;26317;44.894;20.286;2023-08-08T13:21:57;100980.88;;;25.78;36.16
40612;BME280;26317;44.894;20.286;2023-08-08T13:24:32;100977.97;;;26.09;36.40
40612;BME280;26317;44.894;20.286;2023-08-08T13:27:15;100976.47;;;26.34;35.50
40612;BME280;26317;44.894;20.286;2023-08-08T13:29:55;100974.09;;;26.55;33.69
40612;BME280;26317;44.894;20.286;2023-08-08T13:32:31;100974.31;;;26.70;33.25
40612;BME280;26317;44.894;20.286;2023-08-08T13:35:15;100968.63;;;26.82;36.01
40612;BME280;26317;44.894;20.286;2023-08-08T13:37:59;100966.25;;;27.07;34.56
40612;BME280;26317;44.894;20.286;2023-08-08T13:40:33;100957.69;;;27.41;34.91
40612;BME280;26317;44.894;20.286;2023-08-08T13:43:19;100953.19;;;27.56;33.34
40612;BME280;26317;44.894;20.286;2023-08-08T13:45:58;100962.47;;;27.74;33.58
40612;BME280;26317;44.894;20.286;2023-08-08T13:48:37;100958.97;;;27.18;33.76
40612;BME280;26317;44.894;20.286;2023-08-08T13:51:26;100962.47;;;26.66;34.16
40612;BME280;26317;44.894;20.286;2023-08-08T13:54:04;100960.22;;;26.48;34.40
40612;BME280;26317;44.894;20.286;2023-08-08T13:56:42;100959.84;;;26.50;34.32